createdAt,value
2018-03-28T00:00:49.940Z,61.77
2018-03-28T00:05:51.297Z,60.93
2018-03-28T00:10:52.641Z,63.03
2018-03-28T00:15:54.834Z,58.07
2018-03-28T00:20:57.002Z,63.53
2018-03-28T00:25:58.384Z,62.70
2018-03-28T00:30:59.701Z,64.57
2018-03-28T00:36:01.104Z,66.07
2018-03-28T00:41:02.488Z,68.93
2018-03-28T00:46:03.848Z,68.90
2018-03-28T00:51:23.685Z,65.63
2018-03-28T00:56:25.094Z,68.90
2018-03-28T01:01:27.223Z,70.80
2018-03-28T01:06:29.189Z,63.33
2018-03-28T01:11:30.624Z,70.87
2018-03-28T01:16:32.721Z,76.20
2018-03-28T01:21:34.089Z,72.57
2018-03-28T01:26:35.463Z,67.10
2018-03-28T01:31:36.818Z,70.77
2018-03-28T01:36:38.916Z,69.50
2018-03-28T01:41:40.236Z,71.93
2018-03-28T01:46:41.752Z,72.10
2018-03-28T01:51:43.178Z,72.73
2018-03-28T01:56:44.514Z,76.50
2018-03-28T02:01:45.839Z,74.77
2018-03-28T02:06:47.181Z,69.80
2018-03-28T02:11:49.147Z,75.67
2018-03-28T02:16:50.500Z,68.30
2018-03-28T02:21:51.842Z,74.00
2018-03-28T02:26:53.269Z,73.43
2018-03-28T02:31:54.680Z,73.67
2018-03-28T02:36:56.054Z,70.30
2018-03-28T02:41:57.400Z,72.83
2018-03-28T02:46:58.743Z,65.70
2018-03-28T02:52:00.083Z,72.43
2018-03-28T02:57:02.212Z,74.13
2018-03-28T03:02:03.603Z,66.23
2018-03-28T03:07:05.675Z,71.20
2018-03-28T03:12:06.995Z,72.00
2018-03-28T03:17:09.118Z,78.33
2018-03-28T03:22:10.449Z,70.97
2018-03-28T03:27:11.824Z,73.10
2018-03-28T03:32:13.155Z,71.53
2018-03-28T03:37:14.484Z,72.80
2018-03-28T03:42:15.842Z,67.10
2018-03-28T03:47:18.214Z,79.30
2018-03-28T03:52:19.601Z,69.53
2018-03-28T03:57:20.964Z,69.33
2018-03-28T04:02:22.291Z,66.90
2018-03-28T04:07:24.311Z,76.70
2018-03-28T04:12:25.681Z,67.97
2018-03-28T04:17:27.559Z,75.57
2018-03-28T04:22:29.897Z,70.67
2018-03-28T04:27:32.779Z,68.30
2018-03-28T04:32:34.336Z,71.40
2018-03-28T04:37:36.630Z,67.53
2018-03-28T04:42:38.948Z,68.00
2018-03-28T04:47:41.768Z,63.73
2018-03-28T04:52:44.149Z,80.83
2018-03-28T04:57:46.587Z,68.93
2018-03-28T05:02:49.174Z,71.60
2018-03-28T05:07:50.753Z,68.63
2018-03-28T05:12:52.926Z,73.57
2018-03-28T05:17:56.067Z,69.63
2018-03-28T05:22:57.952Z,76.90
2018-03-28T05:28:01.216Z,73.60
2018-03-28T05:33:03.531Z,71.07
2018-03-28T05:38:06.132Z,77.03
2018-03-28T05:43:07.818Z,82.83
2018-03-28T05:48:10.128Z,78.13
2018-03-28T05:53:12.096Z,69.80
2018-03-28T05:58:13.746Z,69.97
2018-03-28T06:03:16.424Z,67.17
2018-03-28T06:08:18.665Z,75.77
2018-03-28T06:13:20.656Z,68.63
2018-03-28T06:18:22.761Z,68.40
2018-03-28T06:23:25.256Z,68.27
2018-03-28T06:28:27.332Z,67.33
2018-03-28T06:33:30.191Z,65.87
2018-03-28T06:38:32.240Z,62.43
2018-03-28T06:43:34.422Z,57.77
2018-03-28T06:48:37.520Z,60.83
2018-03-28T06:53:40.443Z,64.73
2018-03-28T06:58:42.252Z,62.20
2018-03-28T07:03:43.957Z,68.50
2018-03-28T07:08:46.108Z,73.20
2018-03-28T07:13:48.866Z,78.40
2018-03-28T07:18:50.335Z,70.57
2018-03-28T07:23:51.692Z,80.87
2018-03-28T07:28:53.122Z,78.00
2018-03-28T07:33:54.442Z,80.27
2018-03-28T07:38:56.654Z,64.67
2018-03-28T07:43:58.757Z,65.97
2018-03-28T07:49:00.206Z,64.13
2018-03-28T07:54:01.604Z,70.90
2018-03-28T07:59:02.938Z,76.20
2018-03-28T08:04:05.047Z,69.20
2018-03-28T08:09:07.137Z,62.30
2018-03-28T08:14:09.375Z,70.00
2018-03-28T08:19:12.269Z,58.87
2018-03-28T08:24:14.347Z,54.30
2018-03-28T08:29:15.711Z,60.77
2018-03-28T08:34:17.088Z,62.50
2018-03-28T08:39:19.175Z,50.83
2018-03-28T08:44:21.271Z,51.53
2018-03-28T08:49:22.613Z,51.90
2018-03-28T08:54:23.944Z,51.00
2018-03-28T08:59:25.295Z,51.70
2018-03-28T09:04:26.690Z,52.93
2018-03-28T09:09:28.039Z,70.20
2018-03-28T09:14:30.102Z,59.43
2018-03-28T09:19:31.516Z,67.70
2018-03-28T09:24:32.858Z,65.40
2018-03-28T09:29:34.246Z,67.23
2018-03-28T09:34:35.564Z,60.10
2018-03-28T09:39:36.900Z,62.73
2018-03-28T09:44:38.963Z,67.97
2018-03-28T09:49:40.321Z,59.97
2018-03-28T09:54:41.747Z,58.73
2018-03-28T09:59:43.105Z,57.87
2018-03-28T10:04:48.493Z,63.57
2018-03-28T10:09:49.892Z,60.40
2018-03-28T10:14:51.228Z,58.93
2018-03-28T10:19:52.566Z,57.23
2018-03-28T10:24:53.929Z,58.37
2018-03-28T10:29:56.051Z,62.33
2018-03-28T10:34:57.419Z,52.70
2018-03-28T10:39:59.487Z,49.00
2018-03-28T10:45:00.908Z,50.63
2018-03-28T10:50:03.022Z,43.90
2018-03-28T10:55:05.152Z,52.80
2018-03-28T11:00:06.544Z,42.90
2018-03-28T11:05:07.931Z,40.90
2018-03-28T11:10:09.263Z,46.43
2018-03-28T11:15:10.596Z,40.20
2018-03-28T11:20:12.715Z,34.43
2018-03-28T11:25:20.931Z,38.73
2018-03-28T11:30:22.298Z,38.23
2018-03-28T11:35:23.724Z,38.10
2018-03-28T11:40:25.098Z,35.10
2018-03-28T11:45:26.505Z,37.57
2018-03-28T11:50:27.866Z,40.40
2018-03-28T11:55:29.214Z,40.23
2018-03-28T12:00:30.610Z,38.40
2018-03-28T12:05:31.935Z,35.50
2018-03-28T12:10:33.283Z,36.53
2018-03-28T12:15:34.654Z,38.87
2018-03-28T12:20:36.775Z,37.30
2018-03-28T12:25:38.895Z,39.57
2018-03-28T12:30:40.233Z,36.20
2018-03-28T12:35:41.643Z,36.80
2018-03-28T12:40:43.743Z,36.10
2018-03-28T12:45:45.067Z,36.47
2018-03-28T12:50:46.441Z,38.60
2018-03-28T12:55:48.578Z,38.90
2018-03-28T13:00:49.930Z,37.57
2018-03-28T13:05:51.505Z,45.03
2018-03-28T13:10:52.864Z,41.97
2018-03-28T13:15:54.224Z,42.77
2018-03-28T13:20:56.361Z,40.67
2018-03-28T13:25:57.869Z,40.60
2018-03-28T13:30:59.303Z,41.80
2018-03-28T13:36:00.626Z,47.97
2018-03-28T13:41:01.963Z,43.73
2018-03-28T13:46:03.477Z,46.97
2018-03-28T13:51:05.563Z,42.40
2018-03-28T13:56:06.945Z,46.93
2018-03-28T14:01:08.648Z,53.30
2018-03-28T14:06:10.008Z,50.17
2018-03-28T14:11:11.337Z,56.97
2018-03-28T14:16:12.660Z,56.30
2018-03-28T14:21:13.986Z,60.53
2018-03-28T14:26:15.339Z,59.90
2018-03-28T14:31:16.664Z,59.70
2018-03-28T14:36:18.004Z,65.30
2018-03-28T14:41:20.079Z,62.63
2018-03-28T14:46:21.397Z,66.97
2018-03-28T14:51:23.518Z,68.20
2018-03-28T14:56:24.927Z,62.83
2018-03-28T15:01:26.273Z,76.53
2018-03-28T15:06:27.611Z,70.53
2018-03-28T15:11:29.013Z,73.37
2018-03-28T15:16:30.351Z,85.60
2018-03-28T15:21:31.700Z,88.03
2018-03-28T15:26:33.035Z,77.67
2018-03-28T15:31:34.378Z,69.20
2018-03-28T15:36:35.696Z,72.37
2018-03-28T15:41:37.045Z,76.27
2018-03-28T15:46:38.410Z,74.37
2018-03-28T15:51:39.752Z,74.17
2018-03-28T15:56:41.133Z,75.90
2018-03-28T16:01:42.556Z,61.10
2018-03-28T16:06:43.895Z,64.10
2018-03-28T16:11:45.458Z,56.20
2018-03-28T16:16:47.544Z,57.43
2018-03-28T16:21:48.872Z,56.00
2018-03-28T16:26:50.630Z,50.20
2018-03-28T16:31:52.022Z,50.80
2018-03-28T16:36:53.368Z,60.40
2018-03-28T16:41:55.314Z,54.00
2018-03-28T16:46:57.384Z,154.33
2018-03-28T16:51:58.712Z,53.63
2018-03-28T16:57:00.966Z,38.40
2018-03-28T17:02:02.397Z,38.23
2018-03-28T17:07:04.224Z,38.97
2018-03-28T17:12:05.574Z,39.27
2018-03-28T17:17:06.923Z,42.53
2018-03-28T17:22:08.312Z,42.30
2018-03-28T17:27:10.408Z,39.70
2018-03-28T17:32:12.509Z,43.17
2018-03-28T17:37:13.863Z,31.90
2018-03-28T17:42:15.207Z,31.13
2018-03-28T17:47:17.557Z,36.70
2018-03-28T17:52:19.155Z,38.90
2018-03-28T17:57:20.560Z,26.83
2018-03-28T18:02:21.939Z,29.37
2018-03-28T18:07:23.490Z,35.00
2018-03-28T18:12:25.820Z,32.00
2018-03-28T18:17:27.912Z,26.03
2018-03-28T18:22:29.966Z,28.23
2018-03-28T18:27:31.563Z,24.80
2018-03-28T18:32:32.924Z,35.80
2018-03-28T18:37:34.303Z,27.67
2018-03-28T18:42:35.751Z,39.13
2018-03-28T18:47:37.166Z,42.27
2018-03-28T18:52:38.460Z,37.80
2018-03-28T18:57:40.746Z,33.00
2018-03-28T19:02:42.194Z,41.10
2018-03-28T19:07:43.523Z,38.00
2018-03-28T19:12:45.864Z,41.90
2018-03-28T19:17:47.202Z,44.97
2018-03-28T19:22:48.557Z,43.07
2018-03-28T19:27:50.753Z,45.90
2018-03-28T19:32:52.848Z,48.47
2018-03-28T19:37:54.321Z,48.97
2018-03-28T19:42:55.704Z,55.10
2018-03-28T19:47:57.117Z,48.40
2018-03-28T19:52:58.477Z,43.20
2018-03-28T19:57:59.811Z,48.40
2018-03-28T20:03:01.138Z,48.90
2018-03-28T20:08:02.528Z,50.30
2018-03-28T20:13:03.840Z,53.37
2018-03-28T20:18:05.185Z,59.17
2018-03-28T20:23:07.234Z,49.60
2018-03-28T20:28:08.588Z,49.20
2018-03-28T20:33:09.998Z,50.10
2018-03-28T20:38:11.356Z,55.27
2018-03-28T20:43:12.675Z,47.80
2018-03-28T20:48:13.984Z,53.73
2018-03-28T20:53:15.309Z,45.97
2018-03-28T20:58:16.618Z,46.13
2018-03-28T21:03:18.787Z,51.10
2018-03-28T21:08:20.138Z,47.03
2018-03-28T21:13:21.464Z,48.80
2018-03-28T21:18:23.017Z,45.70
2018-03-28T21:23:24.427Z,50.73
2018-03-28T21:28:25.868Z,49.37
2018-03-28T21:33:27.174Z,55.07
2018-03-28T21:38:29.456Z,48.57
2018-03-28T21:43:31.535Z,31.67
2018-03-28T21:48:32.853Z,29.97
2018-03-28T21:53:34.165Z,36.90
2018-03-28T21:58:36.265Z,38.03
2018-03-28T22:03:38.315Z,45.43
2018-03-28T22:08:39.642Z,38.60
2018-03-28T22:13:40.961Z,34.67
2018-03-28T22:18:43.048Z,35.67
2018-03-28T22:23:44.385Z,35.87
2018-03-28T22:28:45.757Z,39.33
2018-03-28T22:33:47.118Z,37.63
2018-03-28T22:38:48.431Z,28.13
2018-03-28T22:43:50.548Z,22.63
2018-03-28T22:48:51.881Z,15.30
2018-03-28T22:53:53.209Z,19.63
2018-03-28T22:58:55.342Z,18.93
2018-03-28T23:03:56.687Z,12.60
2018-03-28T23:08:58.034Z,16.23
2018-03-28T23:13:59.391Z,16.07
2018-03-28T23:19:01.500Z,13.87
2018-03-28T23:24:02.915Z,11.37
2018-03-28T23:29:04.247Z,12.50
2018-03-28T23:34:05.554Z,10.53
2018-03-28T23:39:06.931Z,6.37
2018-03-28T23:44:08.276Z,8.50
2018-03-28T23:49:09.598Z,6.80
2018-03-28T23:54:10.942Z,8.97
2018-03-28T23:59:12.270Z,5.67
